sensor_id;sensor_type;location;lat;lon;timestamp;pressure;altitude;pressure_sealevel;temperature;humidity
60976;BME280;46849;48.154;17.042;2023-02-02T00:00:15;98589.03;;;0.75;100.00
60976;BME280;46849;48.154;17.042;2023-02-02T00:03:20;98602.28;;;0.91;100.00
60976;BME280;46849;48.154;17.042;2023-02-02T00:06:05;98594.34;;;0.97;100.00
60976;BME280;46849;48.154;17.042;2023-02-02T00:08:50;98600.16;;;1.04;100.00
60976;BME280;46849;48.154;17.042;2023-02-02T00:11:36;98604.97;;;0.88;100.00
60976;BME280;46849;48.154;17.042;2023-02-02T00:14:21;98599.41;;;1.01;100.00
60976;BME280;46849;48.154;17.042;2023-02-02T00:17:08;98608.72;;;1.05;100.00
60976;BME280;46849;48.154;17.042;2023-02-02T00:19:54;98603.34;;;1.13;100.00
60976;BME280;46849;48.154;17.042;2023-02-02T00:22:38;98602.78;;;1.30;100.00
60976;BME280;46849;48.154;17.042;2023-02-02T00:25:23;98591.63;;;1.28;100.00
60976;BME280;46849;48.154;17.042;2023-02-02T00:28:08;98579.69;;;1.25;100.00
60976;BME280;46849;48.154;17.042;2023-02-02T00:30:53;98589.22;;;1.23;100.00
60976;BME280;46849;48.154;17.042;2023-02-02T00:33:38;98580.53;;;1.26;100.00
60976;BME280;46849;48.154;17.042;2023-02-02T00:36:22;98575.28;;;1.29;100.00
60976;BME280;46849;48.154;17.042;2023-02-02T00:39:07;98580.03;;;1.41;100.00
60976;BME280;46849;48.154;17.042;2023-02-02T00:41:53;98574.81;;;1.43;100.00
60976;BME280;46849;48.154;17.042;2023-02-02T00:44:37;98565.09;;;1.24;100.00
60976;BME280;46849;48.154;17.042;2023-02-02T00:47:42;98572.22;;;1.17;100.00
60976;BME280;46849;48.154;17.042;2023-02-02T00:50:26;98577.31;;;1.19;100.00
60976;BME280;46849;48.154;17.042;2023-02-02T00:53:12;98560.44;;;1.08;100.00
60976;BME280;46849;48.154;17.042;2023-02-02T00:55:56;98550.16;;;1.07;100.00
60976;BME280;46849;48.154;17.042;2023-02-02T00:58:41;98532.16;;;1.31;100.00
60976;BME280;46849;48.154;17.042;2023-02-02T01:01:26;98521.78;;;1.32;100.00
60976;BME280;46849;48.154;17.042;2023-02-02T01:04:11;98530.06;;;1.17;100.00
60976;BME280;46849;48.154;17.042;2023-02-02T01:06:57;98552.16;;;1.26;100.00
60976;BME280;46849;48.154;17.042;2023-02-02T01:09:42;98554.56;;;1.30;100.00
60976;BME280;46849;48.154;17.042;2023-02-02T01:12:27;98560.94;;;1.20;100.00
60976;BME280;46849;48.154;17.042;2023-02-02T01:15:12;98572.22;;;1.17;100.00
60976;BME280;46849;48.154;17.042;2023-02-02T01:17:57;98567.16;;;1.14;100.00
60976;BME280;46849;48.154;17.042;2023-02-02T01:20:42;98563.34;;;1.25;100.00
60976;BME280;46849;48.154;17.042;2023-02-02T01:23:27;98573.41;;;1.07;100.00
60976;BME280;46849;48.154;17.042;2023-02-02T01:26:14;98591.41;;;1.08;100.00
60976;BME280;46849;48.154;17.042;2023-02-02T01:28:58;98593.19;;;1.06;100.00
60976;BME280;46849;48.154;17.042;2023-02-02T01:31:44;98590.38;;;1.14;100.00
60976;BME280;46849;48.154;17.042;2023-02-02T01:34:28;98591.09;;;1.18;100.00
60976;BME280;46849;48.154;17.042;2023-02-02T01:37:13;98567.16;;;1.14;100.00
60976;BME280;46849;48.154;17.042;2023-02-02T01:39:58;98568.28;;;1.05;100.00
60976;BME280;46849;48.154;17.042;2023-02-02T01:42:43;98568.78;;;1.17;100.00
60976;BME280;46849;48.154;17.042;2023-02-02T01:45:28;98556.56;;;1.22;100.00
60976;BME280;46849;48.154;17.042;2023-02-02T01:48:13;98569.38;;;1.25;100.00
60976;BME280;46849;48.154;17.042;2023-02-02T01:51:01;98580.88;;;1.15;100.00
60976;BME280;46849;48.154;17.042;2023-02-02T01:53:48;98585.94;;;1.18;100.00
60976;BME280;46849;48.154;17.042;2023-02-02T01:56:38;98560.38;;;1.10;100.00
60976;BME280;46849;48.154;17.042;2023-02-02T01:59:26;98577.97;;;1.24;100.00
60976;BME280;46849;48.154;17.042;2023-02-02T02:02:12;98562.59;;;1.21;100.00
60976;BME280;46849;48.154;17.042;2023-02-02T02:04:59;98572.38;;;1.11;100.00
60976;BME280;46849;48.154;17.042;2023-02-02T02:07:46;98572.38;;;1.13;100.00
60976;BME280;46849;48.154;17.042;2023-02-02T02:10:33;98562.22;;;1.06;100.00
60976;BME280;46849;48.154;17.042;2023-02-02T02:13:19;98573.53;;;1.02;100.00
60976;BME280;46849;48.154;17.042;2023-02-02T02:33:03;98579.78;;;0.95;100.00
60976;BME280;46849;48.154;17.042;2023-02-02T02:35:53;98567.28;;;0.82;100.00
60976;BME280;46849;48.154;17.042;2023-02-02T02:42:08;98578.91;;;0.96;100.00
60976;BME280;46849;48.154;17.042;2023-02-02T02:45:00;98576.91;;;0.77;100.00
60976;BME280;46849;48.154;17.042;2023-02-02T02:47:48;98581.34;;;0.72;100.00
60976;BME280;46849;48.154;17.042;2023-02-02T02:50:34;98590.34;;;0.87;100.00
60976;BME280;46849;48.154;17.042;2023-02-02T02:53:22;98586.56;;;0.70;100.00
60976;BME280;46849;48.154;17.042;2023-02-02T02:56:21;98588.94;;;0.78;100.00
60976;BME280;46849;48.154;17.042;2023-02-02T03:08:31;98585.25;;;0.57;100.00
60976;BME280;46849;48.154;17.042;2023-02-02T03:11:19;98589.53;;;0.58;100.00
60976;BME280;46849;48.154;17.042;2023-02-02T03:14:04;98584.41;;;0.56;100.00
60976;BME280;46849;48.154;17.042;2023-02-02T03:16:53;98584.84;;;0.71;100.00
60976;BME280;46849;48.154;17.042;2023-02-02T03:19:37;98581.31;;;0.73;100.00
60976;BME280;46849;48.154;17.042;2023-02-02T03:22:22;98587.41;;;0.71;100.00
60976;BME280;46849;48.154;17.042;2023-02-02T03:25:07;98583.06;;;0.73;100.00
60976;BME280;46849;48.154;17.042;2023-02-02T03:27:57;98591.19;;;0.59;100.00
60976;BME280;46849;48.154;17.042;2023-02-02T03:30:42;98587.09;;;0.53;100.00
60976;BME280;46849;48.154;17.042;2023-02-02T03:33:28;98581.94;;;0.53;100.00
60976;BME280;46849;48.154;17.042;2023-02-02T03:36:13;98591.59;;;0.46;100.00
60976;BME280;46849;48.154;17.042;2023-02-02T03:38:58;98585.56;;;0.46;100.00
60976;BME280;46849;48.154;17.042;2023-02-02T03:41:43;98581.88;;;0.55;100.00
60976;BME280;46849;48.154;17.042;2023-02-02T03:44:27;98588.16;;;0.46;100.00
60976;BME280;46849;48.154;17.042;2023-02-02T03:47:12;98586.94;;;0.58;100.00
60976;BME280;46849;48.154;17.042;2023-02-02T03:49:57;98593.69;;;0.62;100.00
60976;BME280;46849;48.154;17.042;2023-02-02T03:52:42;98605.00;;;0.58;100.00
60976;BME280;46849;48.154;17.042;2023-02-02T03:55:27;98600.44;;;0.66;100.00
60976;BME280;46849;48.154;17.042;2023-02-02T03:58:11;98605.28;;;0.77;100.00
60976;BME280;46849;48.154;17.042;2023-02-02T04:01:04;98601.41;;;0.64;100.00
60976;BME280;46849;48.154;17.042;2023-02-02T04:03:50;98609.09;;;0.65;100.00
60976;BME280;46849;48.154;17.042;2023-02-02T04:06:35;98611.34;;;0.76;100.00
60976;BME280;46849;48.154;17.042;2023-02-02T04:09:20;98615.44;;;0.82;100.00
60976;BME280;46849;48.154;17.042;2023-02-02T04:12:05;98612.59;;;0.91;100.00
60976;BME280;46849;48.154;17.042;2023-02-02T04:14:49;98608.97;;;1.24;100.00
60976;BME280;46849;48.154;17.042;2023-02-02T04:17:34;98611.84;;;1.15;100.00
60976;BME280;46849;48.154;17.042;2023-02-02T04:20:18;98603.47;;;1.08;100.00
60976;BME280;46849;48.154;17.042;2023-02-02T04:23:03;98603.56;;;1.05;100.00
60976;BME280;46849;48.154;17.042;2023-02-02T04:25:49;98609.13;;;0.92;100.00
60976;BME280;46849;48.154;17.042;2023-02-02T04:28:34;98611.66;;;0.94;100.00
60976;BME280;46849;48.154;17.042;2023-02-02T04:31:19;98603.81;;;0.97;100.00
60976;BME280;46849;48.154;17.042;2023-02-02T04:34:04;98613.31;;;0.95;100.00
60976;BME280;46849;48.154;17.042;2023-02-02T04:36:48;98616.75;;;0.95;100.00
60976;BME280;46849;48.154;17.042;2023-02-02T04:39:33;98618.13;;;1.07;100.00
60976;BME280;46849;48.154;17.042;2023-02-02T04:42:18;98611.66;;;1.21;100.00
60976;BME280;46849;48.154;17.042;2023-02-02T04:45:03;98615.69;;;1.30;100.00
60976;BME280;46849;48.154;17.042;2023-02-02T04:47:47;98614.09;;;1.26;100.00
60976;BME280;46849;48.154;17.042;2023-02-02T04:50:32;98624.44;;;1.24;100.00
60976;BME280;46849;48.154;17.042;2023-02-02T04:53:17;98638.16;;;1.26;100.00
60976;BME280;46849;48.154;17.042;2023-02-02T04:56:07;98637.41;;;1.22;100.00
60976;BME280;46849;48.154;17.042;2023-02-02T04:58:52;98635.03;;;1.16;100.00
60976;BME280;46849;48.154;17.042;2023-02-02T05:01:38;98642.50;;;1.26;100.00
60976;BME280;46849;48.154;17.042;2023-02-02T05:04:23;98645.09;;;1.24;100.00
60976;BME280;46849;48.154;17.042;2023-02-02T05:07:08;98641.22;;;1.38;100.00
60976;BME280;46849;48.154;17.042;2023-02-02T05:09:53;98637.72;;;1.40;100.00
60976;BME280;46849;48.154;17.042;2023-02-02T05:12:38;98635.16;;;1.40;100.00
60976;BME280;46849;48.154;17.042;2023-02-02T05:15:23;98637.78;;;1.39;100.00
60976;BME280;46849;48.154;17.042;2023-02-02T05:18:07;98652.47;;;1.37;100.00
60976;BME280;46849;48.154;17.042;2023-02-02T05:20:52;98652.78;;;1.27;100.00
60976;BME280;46849;48.154;17.042;2023-02-02T05:23:38;98655.34;;;1.27;100.00
60976;BME280;46849;48.154;17.042;2023-02-02T05:26:25;98656.22;;;1.26;100.00
60976;BME280;46849;48.154;17.042;2023-02-02T05:29:10;98651.63;;;1.36;100.00
60976;BME280;46849;48.154;17.042;2023-02-02T05:31:56;98645.94;;;1.25;100.00
60976;BME280;46849;48.154;17.042;2023-02-02T05:34:41;98645.00;;;2.05;100.00
60976;BME280;46849;48.154;17.042;2023-02-02T05:37:25;98645.84;;;1.80;100.00
60976;BME280;46849;48.154;17.042;2023-02-02T05:40:10;98637.75;;;1.66;100.00
60976;BME280;46849;48.154;17.042;2023-02-02T05:42:55;98645.31;;;1.45;100.00
60976;BME280;46849;48.154;17.042;2023-02-02T05:45:39;98645.56;;;1.37;100.00
60976;BME280;46849;48.154;17.042;2023-02-02T05:48:24;98637.56;;;1.18;100.00
60976;BME280;46849;48.154;17.042;2023-02-02T05:51:19;98635.59;;;2.03;100.00
60976;BME280;46849;48.154;17.042;2023-02-02T05:54:05;98645.84;;;1.55;100.00
60976;BME280;46849;48.154;17.042;2023-02-02T05:56:51;98646.69;;;1.55;100.00
60976;BME280;46849;48.154;17.042;2023-02-02T05:59:36;98643.56;;;1.45;100.00
60976;BME280;46849;48.154;17.042;2023-02-02T06:02:21;98642.84;;;1.42;100.00
60976;BME280;46849;48.154;17.042;2023-02-02T06:05:08;98632.94;;;1.28;100.00
60976;BME280;46849;48.154;17.042;2023-02-02T06:07:52;98647.72;;;1.22;100.00
60976;BME280;46849;48.154;17.042;2023-02-02T06:10:39;98651.97;;;1.25;100.00
60976;BME280;46849;48.154;17.042;2023-02-02T06:13:24;98653.94;;;1.17;100.00
60976;BME280;46849;48.154;17.042;2023-02-02T06:16:08;98665.91;;;1.19;100.00
60976;BME280;46849;48.154;17.042;2023-02-02T06:18:53;98659.25;;;1.12;100.00
60976;BME280;46849;48.154;17.042;2023-02-02T06:21:38;98660.38;;;1.03;100.00
60976;BME280;46849;48.154;17.042;2023-02-02T06:24:23;98675.13;;;1.00;100.00
60976;BME280;46849;48.154;17.042;2023-02-02T06:27:07;98663.34;;;0.91;100.00
60976;BME280;46849;48.154;17.042;2023-02-02T06:29:52;98671.41;;;1.08;100.00
60976;BME280;46849;48.154;17.042;2023-02-02T06:32:37;98673.28;;;1.03;100.00
60976;BME280;46849;48.154;17.042;2023-02-02T06:35:22;98680.00;;;1.09;100.00
60976;BME280;46849;48.154;17.042;2023-02-02T06:38:07;98682.44;;;1.14;100.00
60976;BME280;46849;48.154;17.042;2023-02-02T06:40:51;98687.75;;;1.09;100.00
60976;BME280;46849;48.154;17.042;2023-02-02T06:43:36;98685.16;;;1.09;100.00
60976;BME280;46849;48.154;17.042;2023-02-02T06:46:21;98703.78;;;1.19;100.00
60976;BME280;46849;48.154;17.042;2023-02-02T06:49:06;98705.03;;;1.34;100.00
60976;BME280;46849;48.154;17.042;2023-02-02T06:51:51;98702.41;;;1.35;100.00
60976;BME280;46849;48.154;17.042;2023-02-02T06:54:36;98716.00;;;1.41;100.00
60976;BME280;46849;48.154;17.042;2023-02-02T06:57:21;98722.22;;;1.62;100.00
60976;BME280;46849;48.154;17.042;2023-02-02T07:00:06;98715.03;;;1.72;99.31
60976;BME280;46849;48.154;17.042;2023-02-02T07:02:51;98723.63;;;1.72;98.65
60976;BME280;46849;48.154;17.042;2023-02-02T07:05:37;98722.41;;;1.83;98.20
60976;BME280;46849;48.154;17.042;2023-02-02T07:08:23;98728.28;;;1.88;97.82
60976;BME280;46849;48.154;17.042;2023-02-02T07:11:08;98727.19;;;1.95;97.45
60976;BME280;46849;48.154;17.042;2023-02-02T07:13:53;98740.25;;;2.16;96.34
60976;BME280;46849;48.154;17.042;2023-02-02T07:16:38;98743.28;;;2.53;95.60
60976;BME280;46849;48.154;17.042;2023-02-02T07:19:22;98731.78;;;3.08;90.99
60976;BME280;46849;48.154;17.042;2023-02-02T07:22:07;98742.66;;;3.63;88.11
60976;BME280;46849;48.154;17.042;2023-02-02T07:24:52;98746.25;;;4.02;84.81
60976;BME280;46849;48.154;17.042;2023-02-02T07:27:37;98742.94;;;3.99;83.60
60976;BME280;46849;48.154;17.042;2023-02-02T07:30:21;98744.25;;;4.09;81.94
60976;BME280;46849;48.154;17.042;2023-02-02T07:33:06;98762.22;;;3.93;82.83
60976;BME280;46849;48.154;17.042;2023-02-02T07:35:51;98761.78;;;3.61;85.13
60976;BME280;46849;48.154;17.042;2023-02-02T07:38:36;98776.53;;;3.36;85.66
60976;BME280;46849;48.154;17.042;2023-02-02T07:41:20;98768.72;;;3.14;86.20
60976;BME280;46849;48.154;17.042;2023-02-02T07:44:05;98768.94;;;3.07;88.42
60976;BME280;46849;48.154;17.042;2023-02-02T07:46:50;98766.25;;;3.11;87.84
60976;BME280;46849;48.154;17.042;2023-02-02T07:49:35;98765.81;;;2.99;88.19
60976;BME280;46849;48.154;17.042;2023-02-02T07:52:20;98760.44;;;3.04;88.61
60976;BME280;46849;48.154;17.042;2023-02-02T07:55:05;98776.28;;;2.96;91.00
60976;BME280;46849;48.154;17.042;2023-02-02T07:57:51;98768.06;;;2.85;90.20
60976;BME280;46849;48.154;17.042;2023-02-02T08:00:37;98780.16;;;2.84;91.37
60976;BME280;46849;48.154;17.042;2023-02-02T08:03:22;98786.91;;;2.88;90.07
60976;BME280;46849;48.154;17.042;2023-02-02T08:06:33;98788.59;;;2.89;90.20
60976;BME280;46849;48.154;17.042;2023-02-02T08:09:18;98785.13;;;2.90;90.21
60976;BME280;46849;48.154;17.042;2023-02-02T08:12:02;98788.81;;;2.83;90.31
60976;BME280;46849;48.154;17.042;2023-02-02T08:14:47;98794.16;;;3.02;89.87
60976;BME280;46849;48.154;17.042;2023-02-02T08:17:32;98788.75;;;3.08;89.75
60976;BME280;46849;48.154;17.042;2023-02-02T08:20:18;98800.41;;;3.20;89.71
60976;BME280;46849;48.154;17.042;2023-02-02T08:23:02;98794.34;;;3.44;88.06
60976;BME280;46849;48.154;17.042;2023-02-02T08:25:48;98788.75;;;3.55;88.01
60976;BME280;46849;48.154;17.042;2023-02-02T08:28:33;98780.25;;;3.74;86.56
60976;BME280;46849;48.154;17.042;2023-02-02T08:34:05;98773.56;;;4.32;83.61
60976;BME280;46849;48.154;17.042;2023-02-02T08:36:50;98775.66;;;4.64;81.90
60976;BME280;46849;48.154;17.042;2023-02-02T08:39:35;98774.78;;;4.23;81.65
60976;BME280;46849;48.154;17.042;2023-02-02T08:42:20;98789.00;;;3.92;82.80
60976;BME280;46849;48.154;17.042;2023-02-02T08:45:05;98793.84;;;4.01;82.91
60976;BME280;46849;48.154;17.042;2023-02-02T08:47:50;98792.53;;;3.91;83.59
60976;BME280;46849;48.154;17.042;2023-02-02T08:50:35;98791.56;;;3.71;83.34
60976;BME280;46849;48.154;17.042;2023-02-02T08:53:21;98786.50;;;3.68;83.17
60976;BME280;46849;48.154;17.042;2023-02-02T08:56:09;98797.63;;;3.49;83.91
60976;BME280;46849;48.154;17.042;2023-02-02T08:58:56;98807.75;;;3.55;84.97
60976;BME280;46849;48.154;17.042;2023-02-02T09:01:41;98808.22;;;3.65;85.01
60976;BME280;46849;48.154;17.042;2023-02-02T09:04:26;98815.69;;;3.51;85.15
60976;BME280;46849;48.154;17.042;2023-02-02T09:07:11;98815.50;;;3.55;84.46
60976;BME280;46849;48.154;17.042;2023-02-02T09:09:56;98814.78;;;3.52;84.47
60976;BME280;46849;48.154;17.042;2023-02-02T09:12:41;98827.06;;;3.47;83.56
60976;BME280;46849;48.154;17.042;2023-02-02T09:15:26;98827.25;;;3.64;82.46
60976;BME280;46849;48.154;17.042;2023-02-02T09:18:10;98817.84;;;3.39;83.88
60976;BME280;46849;48.154;17.042;2023-02-02T09:20:58;98835.50;;;3.52;84.49
60976;BME280;46849;48.154;17.042;2023-02-02T09:23:45;98832.91;;;3.74;84.43
60976;BME280;46849;48.154;17.042;2023-02-02T09:26:30;98820.75;;;3.54;83.47
60976;BME280;46849;48.154;17.042;2023-02-02T09:29:15;98832.59;;;3.60;84.39
60976;BME280;46849;48.154;17.042;2023-02-02T09:32:01;98830.44;;;3.71;84.24
60976;BME280;46849;48.154;17.042;2023-02-02T09:34:46;98830.19;;;3.77;84.48
60976;BME280;46849;48.154;17.042;2023-02-02T09:37:32;98829.53;;;3.72;84.72
60976;BME280;46849;48.154;17.042;2023-02-02T09:40:18;98825.13;;;3.74;83.75
60976;BME280;46849;48.154;17.042;2023-02-02T09:43:12;98831.06;;;3.78;83.26
60976;BME280;46849;48.154;17.042;2023-02-02T09:46:27;98838.72;;;3.59;85.30
60976;BME280;46849;48.154;17.042;2023-02-02T09:49:17;98835.13;;;3.61;83.57
60976;BME280;46849;48.154;17.042;2023-02-02T09:52:17;98843.09;;;3.56;85.49
60976;BME280;46849;48.154;17.042;2023-02-02T09:55:36;98839.84;;;3.51;83.84
60976;BME280;46849;48.154;17.042;2023-02-02T09:58:24;98839.28;;;3.43;84.67
60976;BME280;46849;48.154;17.042;2023-02-02T10:01:14;98844.06;;;3.54;84.58
60976;BME280;46849;48.154;17.042;2023-02-02T10:04:04;98853.03;;;3.45;85.96
60976;BME280;46849;48.154;17.042;2023-02-02T10:06:53;98838.94;;;3.52;85.28
60976;BME280;46849;48.154;17.042;2023-02-02T10:09:43;98843.28;;;3.52;85.03
60976;BME280;46849;48.154;17.042;2023-02-02T10:12:56;98843.22;;;3.53;85.84
60976;BME280;46849;48.154;17.042;2023-02-02T10:16:03;98839.53;;;4.04;84.63
60976;BME280;46849;48.154;17.042;2023-02-02T10:19:05;98840.47;;;4.24;83.32
60976;BME280;46849;48.154;17.042;2023-02-02T10:22:18;98827.50;;;4.44;82.25
60976;BME280;46849;48.154;17.042;2023-02-02T10:25:05;98834.81;;;4.55;81.77
60976;BME280;46849;48.154;17.042;2023-02-02T10:28:16;98835.69;;;4.56;80.12
60976;BME280;46849;48.154;17.042;2023-02-02T10:31:01;98835.88;;;4.51;81.56
60976;BME280;46849;48.154;17.042;2023-02-02T10:33:56;98822.84;;;4.53;79.94
60976;BME280;46849;48.154;17.042;2023-02-02T10:37:01;98834.50;;;4.42;80.92
60976;BME280;46849;48.154;17.042;2023-02-02T10:46:36;98836.59;;;4.55;81.01
60976;BME280;46849;48.154;17.042;2023-02-02T10:49:35;98831.63;;;4.50;79.97
60976;BME280;46849;48.154;17.042;2023-02-02T10:52:25;98831.97;;;4.41;79.92
60976;BME280;46849;48.154;17.042;2023-02-02T10:55:20;98826.34;;;4.73;80.40
60976;BME280;46849;48.154;17.042;2023-02-02T11:00:57;98827.44;;;4.67;79.22
60976;BME280;46849;48.154;17.042;2023-02-02T11:03:44;98813.81;;;4.41;80.72
60976;BME280;46849;48.154;17.042;2023-02-02T11:06:29;98818.63;;;4.50;80.09
60976;BME280;46849;48.154;17.042;2023-02-02T11:09:39;98815.19;;;4.50;79.48
60976;BME280;46849;48.154;17.042;2023-02-02T11:12:29;98816.72;;;4.54;79.59
60976;BME280;46849;48.154;17.042;2023-02-02T11:15:29;98814.34;;;4.28;80.52
60976;BME280;46849;48.154;17.042;2023-02-02T11:18:28;98815.53;;;4.42;81.21
60976;BME280;46849;48.154;17.042;2023-02-02T11:21:30;98814.22;;;4.52;80.36
60976;BME280;46849;48.154;17.042;2023-02-02T11:24:47;98820.91;;;4.37;81.23
60976;BME280;46849;48.154;17.042;2023-02-02T11:27:38;98814.72;;;4.19;80.35
60976;BME280;46849;48.154;17.042;2023-02-02T11:30:33;98825.88;;;4.21;80.12
60976;BME280;46849;48.154;17.042;2023-02-02T11:33:31;98824.84;;;4.25;80.03
60976;BME280;46849;48.154;17.042;2023-02-02T11:36:20;98827.19;;;4.31;80.32
60976;BME280;46849;48.154;17.042;2023-02-02T11:39:19;98825.88;;;4.21;80.50
60976;BME280;46849;48.154;17.042;2023-02-02T11:42:13;98820.06;;;4.16;81.53
60976;BME280;46849;48.154;17.042;2023-02-02T11:44:59;98813.28;;;4.32;80.00
60976;BME280;46849;48.154;17.042;2023-02-02T11:47:44;98810.75;;;4.10;79.78
60976;BME280;46849;48.154;17.042;2023-02-02T11:50:29;98811.88;;;4.25;80.12
60976;BME280;46849;48.154;17.042;2023-02-02T11:56:20;98807.03;;;4.17;80.33
60976;BME280;46849;48.154;17.042;2023-02-02T11:59:28;98814.66;;;4.21;82.30
60976;BME280;46849;48.154;17.042;2023-02-02T12:07:55;98808.56;;;4.22;82.74
60976;BME280;46849;48.154;17.042;2023-02-02T12:11:00;98814.28;;;4.30;81.64
60976;BME280;46849;48.154;17.042;2023-02-02T12:17:02;98807.84;;;4.18;81.42
60976;BME280;46849;48.154;17.042;2023-02-02T12:26:30;98818.94;;;4.22;81.42
60976;BME280;46849;48.154;17.042;2023-02-02T12:29:33;98824.31;;;4.17;81.90
60976;BME280;46849;48.154;17.042;2023-02-02T12:35:25;98809.41;;;4.01;83.08
60976;BME280;46849;48.154;17.042;2023-02-02T12:38:41;98809.00;;;4.11;82.46
60976;BME280;46849;48.154;17.042;2023-02-02T12:50:56;98813.00;;;3.97;83.62
60976;BME280;46849;48.154;17.042;2023-02-02T12:54:13;98810.31;;;3.78;84.99
60976;BME280;46849;48.154;17.042;2023-02-02T12:57:17;98816.88;;;3.64;85.51
60976;BME280;46849;48.154;17.042;2023-02-02T13:03:25;98821.22;;;3.86;85.15
60976;BME280;46849;48.154;17.042;2023-02-02T13:13:03;98801.53;;;3.60;86.08
60976;BME280;46849;48.154;17.042;2023-02-02T13:15:58;98800.94;;;3.75;86.74
60976;BME280;46849;48.154;17.042;2023-02-02T13:18:55;98804.53;;;3.71;86.21
60976;BME280;46849;48.154;17.042;2023-02-02T13:21:43;98804.16;;;3.58;86.86
60976;BME280;46849;48.154;17.042;2023-02-02T13:24:30;98806.69;;;3.60;85.86
60976;BME280;46849;48.154;17.042;2023-02-02T13:27:19;98810.44;;;3.52;87.17
60976;BME280;46849;48.154;17.042;2023-02-02T13:33:02;98810.50;;;3.51;87.53
60976;BME280;46849;48.154;17.042;2023-02-02T13:35:53;98815.69;;;3.51;87.36
60976;BME280;46849;48.154;17.042;2023-02-02T13:38:39;98817.56;;;3.69;87.16
60976;BME280;46849;48.154;17.042;2023-02-02T13:41:26;98807.56;;;3.60;86.86
60976;BME280;46849;48.154;17.042;2023-02-02T13:44:20;98811.94;;;3.58;87.02
60976;BME280;46849;48.154;17.042;2023-02-02T13:47:22;98825.13;;;3.52;87.27
60976;BME280;46849;48.154;17.042;2023-02-02T13:50:15;98822.50;;;3.53;87.40
60976;BME280;46849;48.154;17.042;2023-02-02T13:53:43;98826.19;;;3.48;87.34
60976;BME280;46849;48.154;17.042;2023-02-02T13:56:46;98820.69;;;3.55;87.69
60976;BME280;46849;48.154;17.042;2023-02-02T14:02:52;98831.69;;;3.38;87.79
60976;BME280;46849;48.154;17.042;2023-02-02T14:05:40;98830.69;;;3.42;87.69
60976;BME280;46849;48.154;17.042;2023-02-02T14:08:25;98839.88;;;3.50;88.19
60976;BME280;46849;48.154;17.042;2023-02-02T14:11:18;98847.41;;;3.56;86.47
60976;BME280;46849;48.154;17.042;2023-02-02T14:14:12;98842.41;;;3.51;86.88
60976;BME280;46849;48.154;17.042;2023-02-02T14:20:05;98847.91;;;3.43;87.64
60976;BME280;46849;48.154;17.042;2023-02-02T14:26:51;98855.94;;;3.60;87.07
60976;BME280;46849;48.154;17.042;2023-02-02T14:29:44;98854.75;;;3.68;87.18
60976;BME280;46849;48.154;17.042;2023-02-02T14:32:41;98865.72;;;3.75;86.98
60976;BME280;46849;48.154;17.042;2023-02-02T14:44:24;98868.16;;;3.56;88.63
60976;BME280;46849;48.154;17.042;2023-02-02T14:53:31;98880.06;;;3.38;89.75
60976;BME280;46849;48.154;17.042;2023-02-02T14:56:18;98889.28;;;3.45;89.64
60976;BME280;46849;48.154;17.042;2023-02-02T14:59:04;98885.31;;;3.36;90.70
60976;BME280;46849;48.154;17.042;2023-02-02T15:02:07;98896.50;;;3.37;91.17
60976;BME280;46849;48.154;17.042;2023-02-02T15:08:26;98900.72;;;3.39;90.53
60976;BME280;46849;48.154;17.042;2023-02-02T15:11:12;98906.69;;;3.41;90.96
60976;BME280;46849;48.154;17.042;2023-02-02T15:14:14;98901.56;;;3.40;90.66
60976;BME280;46849;48.154;17.042;2023-02-02T15:17:05;98905.41;;;3.29;91.57
60976;BME280;46849;48.154;17.042;2023-02-02T15:23:05;98904.78;;;3.23;91.80
60976;BME280;46849;48.154;17.042;2023-02-02T15:26:02;98914.41;;;3.19;92.40
60976;BME280;46849;48.154;17.042;2023-02-02T15:29:00;98916.63;;;3.04;93.56
60976;BME280;46849;48.154;17.042;2023-02-02T15:31:48;98919.31;;;3.01;93.97
60976;BME280;46849;48.154;17.042;2023-02-02T15:34:44;98927.19;;;2.98;93.64
60976;BME280;46849;48.154;17.042;2023-02-02T15:37:38;98927.38;;;2.93;94.52
60976;BME280;46849;48.154;17.042;2023-02-02T15:40:27;98928.13;;;2.95;94.29
60976;BME280;46849;48.154;17.042;2023-02-02T15:43:13;98941.66;;;3.04;93.78
60976;BME280;46849;48.154;17.042;2023-02-02T15:46:04;98942.63;;;3.01;93.88
60976;BME280;46849;48.154;17.042;2023-02-02T15:52:25;98960.91;;;2.97;94.57
60976;BME280;46849;48.154;17.042;2023-02-02T15:55:19;98963.16;;;3.06;93.84
60976;BME280;46849;48.154;17.042;2023-02-02T16:01:17;98978.53;;;2.85;94.83
60976;BME280;46849;48.154;17.042;2023-02-02T16:07:16;98987.22;;;2.82;95.32
60976;BME280;46849;48.154;17.042;2023-02-02T16:10:06;99001.94;;;2.82;95.57
60976;BME280;46849;48.154;17.042;2023-02-02T16:12:51;99011.28;;;2.86;95.68
60976;BME280;46849;48.154;17.042;2023-02-02T16:15:36;99012.28;;;2.82;95.97
60976;BME280;46849;48.154;17.042;2023-02-02T16:18:21;99009.09;;;2.74;96.60
60976;BME280;46849;48.154;17.042;2023-02-02T16:21:14;99020.53;;;2.66;97.22
60976;BME280;46849;48.154;17.042;2023-02-02T16:24:06;99013.41;;;2.73;96.86
60976;BME280;46849;48.154;17.042;2023-02-02T16:26:57;99019.25;;;2.80;96.07
60976;BME280;46849;48.154;17.042;2023-02-02T16:29:43;99021.63;;;2.86;100.00
60976;BME280;46849;48.154;17.042;2023-02-02T16:32:34;99020.13;;;3.81;100.00
60976;BME280;46849;48.154;17.042;2023-02-02T16:35:34;99025.31;;;3.31;100.00
60976;BME280;46849;48.154;17.042;2023-02-02T16:38:32;99032.53;;;3.22;100.00
60976;BME280;46849;48.154;17.042;2023-02-02T16:41:43;99047.31;;;2.92;100.00
60976;BME280;46849;48.154;17.042;2023-02-02T16:44:42;99039.09;;;2.79;100.00
60976;BME280;46849;48.154;17.042;2023-02-02T16:47:33;99049.66;;;2.73;100.00
60976;BME280;46849;48.154;17.042;2023-02-02T16:50:26;99051.53;;;2.68;100.00
60976;BME280;46849;48.154;17.042;2023-02-02T16:53:20;99069.94;;;2.58;100.00
60976;BME280;46849;48.154;17.042;2023-02-02T16:56:06;99070.69;;;2.62;100.00